Time;durP1;ratioP1;P1;durP2;ratioP2;P2;SDS_P1;SDS_P2;PMS_P1;PMS_P2;Temp;Humidity;BMP_temperature;BMP_pressure;BME280_temperature;BME280_humidity;BME280_pressure;Samples;Min_cycle;Max_cycle;Signal;HPM_P1;HPM_P2
2022/06/01 00:01:04;;;;;;;8.08;2.70;;;;;;;17.17;100.00;100817.44;1697371;83;21149;-44
2022/06/01 00:03:33;;;;;;;11.57;2.83;;;;;;;17.14;100.00;100816.27;1720330;83;20979;-44
2022/06/01 00:06:00;;;;;;;7.87;3.02;;;;;;;17.13;100.00;100815.00;1718988;83;20966;-45
2022/06/01 00:08:26;;;;;;;9.13;3.35;;;;;;;17.08;100.00;100808.67;1718693;83;21574;-45
2022/06/01 00:10:55;;;;;;;4.58;2.80;;;;;;;17.07;100.00;100814.81;1715787;83;20897;-44
2022/06/01 00:13:23;;;;;;;8.40;3.12;;;;;;;17.05;100.00;100810.08;1695636;83;21108;-44
2022/06/01 00:15:51;;;;;;;9.28;2.90;;;;;;;17.02;100.00;100820.66;1717458;83;21457;-46
2022/06/01 00:18:18;;;;;;;7.12;2.67;;;;;;;16.97;100.00;100818.22;1714780;83;20944;-44
2022/06/01 00:20:46;;;;;;;7.25;2.90;;;;;;;16.92;100.00;100821.00;1715515;83;20995;-44
2022/06/01 00:23:13;;;;;;;7.95;2.83;;;;;;;16.90;100.00;100817.59;1714535;82;20945;-44
2022/06/01 00:25:41;;;;;;;5.70;2.87;;;;;;;16.88;100.00;100816.81;1715548;83;22184;-44
2022/06/01 00:28:09;;;;;;;8.58;2.98;;;;;;;16.86;100.00;100817.33;1714522;82;20999;-45
2022/06/01 00:30:37;;;;;;;8.35;2.75;;;;;;;16.83;100.00;100820.06;1715921;82;21010;-44
2022/06/01 00:33:04;;;;;;;6.58;2.83;;;;;;;16.80;100.00;100814.96;1717039;83;20889;-44
2022/06/01 00:35:32;;;;;;;13.03;2.87;;;;;;;16.77;100.00;100822.89;1731141;82;20971;-44
2022/06/01 00:37:59;;;;;;;6.45;3.00;;;;;;;16.74;100.00;100816.48;1734387;82;21933;-44
2022/06/01 00:40:26;;;;;;;6.62;2.92;;;;;;;16.71;100.00;100811.38;1739436;82;21018;-44
2022/06/01 00:42:57;;;;;;;6.70;2.95;;;;;;;16.67;100.00;100821.09;1746332;81;20932;-44
2022/06/01 00:45:26;;;;;;;9.95;3.37;;;;;;;16.62;100.00;100821.28;1743570;81;20961;-44
2022/06/01 00:47:53;;;;;;;5.05;2.72;;;;;;;16.57;100.00;100819.75;1734589;82;20944;-44
2022/06/01 00:50:33;;;;;;;12.13;3.22;;;;;;;16.53;100.00;100819.00;1736308;82;21137;-44
2022/06/01 00:53:04;;;;;;;5.08;3.02;;;;;;;16.47;100.00;100827.08;1735874;82;21556;-44
2022/06/01 00:55:34;;;;;;;5.42;2.95;;;;;;;16.41;100.00;100826.84;1743938;81;20935;-44
2022/06/01 00:58:18;;;;;;;7.35;2.80;;;;;;;16.35;100.00;100824.02;1755439;81;20987;-44
2022/06/01 01:00:46;;;;;;;7.60;3.00;;;;;;;16.30;100.00;100825.95;1744258;82;21035;-45
2022/06/01 01:03:13;;;;;;;8.90;3.12;;;;;;;16.26;100.00;100826.95;1730616;82;21152;-45
2022/06/01 01:05:47;;;;;;;6.87;3.65;;;;;;;16.21;100.00;100820.61;1711694;81;20975;-45
2022/06/01 01:08:14;;;;;;;6.50;3.12;;;;;;;16.16;100.00;100825.59;1742543;82;20929;-45
2022/06/01 01:10:41;;;;;;;6.53;2.65;;;;;;;16.11;100.00;100824.91;1735962;82;20905;-45
2022/06/01 01:13:10;;;;;;;10.03;3.08;;;;;;;16.06;100.00;100827.23;1744285;82;20970;-45
2022/06/01 01:15:54;;;;;;;6.47;3.22;;;;;;;16.03;100.00;100827.32;1738829;82;21425;-45
2022/06/01 01:18:27;;;;;;;8.53;3.05;;;;;;;15.99;100.00;100823.59;1744319;82;21063;-45
2022/06/01 01:21:03;;;;;;;9.35;2.95;;;;;;;15.94;100.00;100826.34;1733355;82;20945;-45
2022/06/01 01:23:51;;;;;;;11.22;3.77;;;;;;;15.91;100.00;100823.84;1749853;81;21010;-45
2022/06/01 01:26:18;;;;;;;6.05;3.00;;;;;;;15.87;100.00;100830.05;1742399;81;21030;-46
2022/06/01 01:28:45;;;;;;;11.15;2.80;;;;;;;15.84;100.00;100827.55;1747658;81;21537;-46
2022/06/01 01:31:21;;;;;;;12.58;4.15;;;;;;;15.79;100.00;100828.57;1750081;81;20900;-45
2022/06/01 01:33:50;;;;;;;9.90;3.17;;;;;;;15.75;100.00;100829.55;1739354;82;20842;-46
2022/06/01 01:36:18;;;;;;;9.65;3.10;;;;;;;15.73;100.00;100832.67;1733111;82;20929;-45
2022/06/01 01:39:10;;;;;;;7.97;3.15;;;;;;;15.72;100.00;100828.83;1744306;82;20889;-45
2022/06/01 01:41:50;;;;;;;6.15;2.90;;;;;;;15.70;100.00;100830.17;1743492;82;21184;-47
2022/06/01 01:44:21;;;;;;;5.80;3.10;;;;;;;15.67;100.00;100831.58;1736978;82;20995;-45
2022/06/01 01:46:49;;;;;;;9.43;3.77;;;;;;;15.64;100.00;100833.83;1736922;81;20941;-46
2022/06/01 01:49:19;;;;;;;5.58;3.27;;;;;;;15.60;100.00;100830.92;1738272;80;20983;-45
2022/06/01 01:51:45;;;;;;;4.12;2.60;;;;;;;15.57;100.00;100827.59;1735577;82;21576;-44
2022/06/01 01:54:35;;;;;;;7.22;4.15;;;;;;;15.53;100.00;100829.44;1737806;82;21333;-45
2022/06/01 01:57:12;;;;;;;4.87;3.25;;;;;;;15.49;100.00;100832.59;1685982;81;20958;-45
2022/06/01 01:59:57;;;;;;;7.83;3.27;;;;;;;15.48;100.00;100837.88;1723334;82;21233;-45
2022/06/01 02:03:11;;;;;;;6.83;3.75;;;;;;;15.46;100.00;100836.61;1735251;81;21447;-46
2022/06/01 02:06:04;;;;;;;10.75;3.10;;;;;;;15.43;100.00;100834.10;1748868;82;20877;-46
2022/06/01 02:08:54;;;;;;;5.65;3.10;;;;;;;15.43;100.00;100831.49;1737150;82;22041;-45
2022/06/01 02:14:40;;;;;;;4.22;2.92;;;;;;;15.44;100.00;100834.50;1734981;81;20941;-45
2022/06/01 02:17:14;;;;;;;6.75;3.35;;;;;;;15.46;100.00;100839.22;1743095;81;20932;-44
2022/06/01 02:19:47;;;;;;;3.47;3.17;;;;;;;15.47;100.00;100837.01;1744569;82;20968;-44
2022/06/01 02:22:14;;;;;;;10.98;3.70;;;;;;;15.48;100.00;100842.62;1744262;82;21002;-45
2022/06/01 02:24:41;;;;;;;6.08;3.15;;;;;;;15.49;100.00;100833.89;1723954;82;21011;-44
2022/06/01 02:27:09;;;;;;;5.00;3.35;;;;;;;15.51;100.00;100838.61;1744352;82;20897;-44
2022/06/01 02:29:44;;;;;;;17.62;3.77;;;;;;;15.51;100.00;100830.78;1739977;81;21454;-44
2022/06/01 02:32:11;;;;;;;14.05;3.62;;;;;;;15.51;100.00;100833.39;1744138;82;21572;-44
2022/06/01 02:34:38;;;;;;;6.65;3.37;;;;;;;15.53;100.00;100841.17;1744487;82;21096;-46
2022/06/01 02:37:05;;;;;;;10.08;3.35;;;;;;;15.56;100.00;100839.77;1739224;82;20889;-45
2022/06/01 02:39:32;;;;;;;7.20;3.08;;;;;;;15.61;100.00;100839.16;1731771;82;21439;-44
2022/06/01 02:42:29;;;;;;;5.37;3.58;;;;;;;15.68;100.00;100845.50;1744887;81;20933;-44
2022/06/01 02:45:06;;;;;;;12.10;3.83;;;;;;;15.73;100.00;100852.24;1744655;82;21485;-45
2022/06/01 02:47:38;;;;;;;3.90;3.27;;;;;;;15.84;100.00;100858.88;1740227;82;21118;-45
2022/06/01 02:50:07;;;;;;;6.80;3.25;;;;;;;15.90;100.00;100859.53;1744319;82;20841;-44
2022/06/01 02:52:34;;;;;;;8.00;3.87;;;;;;;15.96;100.00;100862.39;1734993;82;21403;-45
2022/06/01 02:55:05;;;;;;;9.68;3.37;;;;;;;16.01;100.00;100861.77;1748722;82;20916;-45
2022/06/01 02:57:30;;;;;;;4.47;3.20;;;;;;;16.08;100.00;100853.27;1739802;82;21048;-44
2022/06/01 02:59:58;;;;;;;8.48;3.42;;;;;;;16.15;100.00;100848.70;1739034;82;21158;-44
2022/06/01 03:02:28;;;;;;;7.62;3.47;;;;;;;16.21;100.00;100851.08;1731737;82;20896;-44
2022/06/01 03:04:54;;;;;;;6.03;3.20;;;;;;;16.26;100.00;100847.01;1733433;82;20927;-45
2022/06/01 03:07:21;;;;;;;6.85;2.90;;;;;;;16.33;100.00;100855.88;1739502;82;20933;-45
2022/06/01 03:09:48;;;;;;;5.20;3.20;;;;;;;16.37;100.00;100844.84;1731395;82;20889;-45
2022/06/01 03:12:15;;;;;;;5.28;3.27;;;;;;;16.38;100.00;100844.80;1735578;82;21248;-46
2022/06/01 03:14:42;;;;;;;7.90;3.20;;;;;;;16.41;100.00;100843.81;1735919;82;21027;-46
2022/06/01 03:17:08;;;;;;;8.28;3.55;;;;;;;16.46;100.00;100846.27;1736881;82;21046;-45
2022/06/01 03:19:35;;;;;;;4.78;3.15;;;;;;;16.50;100.00;100846.55;1741058;82;20964;-45
2022/06/01 03:22:04;;;;;;;9.00;3.47;;;;;;;16.55;100.00;100843.78;1738810;82;20940;-45
2022/06/01 03:24:32;;;;;;;7.33;3.90;;;;;;;16.57;100.00;100846.74;1744432;82;21163;-44
2022/06/01 03:26:58;;;;;;;8.33;3.65;;;;;;;16.60;100.00;100843.14;1734250;82;20935;-45
2022/06/01 03:29:25;;;;;;;5.87;3.17;;;;;;;16.64;100.00;100852.12;1737959;82;20932;-44
2022/06/01 03:31:53;;;;;;;8.85;3.40;;;;;;;16.68;100.00;100856.80;1730016;82;20985;-44
2022/06/01 03:34:22;;;;;;;4.55;3.25;;;;;;;16.75;100.00;100858.70;1742783;82;21485;-44
2022/06/01 03:36:49;;;;;;;9.40;3.62;;;;;;;16.83;100.00;100854.05;1744786;82;21030;-44
2022/06/01 03:39:17;;;;;;;9.28;3.60;;;;;;;16.92;100.00;100848.89;1734772;82;21537;-45
2022/06/01 03:41:44;;;;;;;5.50;3.60;;;;;;;16.99;100.00;100846.94;1744546;82;20901;-44
2022/06/01 03:47:04;;;;;;;14.25;3.87;;;;;;;17.17;100.00;100851.45;1735567;82;21502;-45
2022/06/01 03:49:32;;;;;;;11.12;3.58;;;;;;;17.28;100.00;100852.77;1731631;82;21549;-45
2022/06/01 03:51:59;;;;;;;6.05;3.80;;;;;;;17.37;100.00;100856.34;1737523;82;20940;-45
2022/06/01 03:54:26;;;;;;;4.92;3.65;;;;;;;17.44;100.00;100855.64;1732626;82;21015;-45
2022/06/01 03:56:53;;;;;;;5.65;3.80;;;;;;;17.43;100.00;100854.77;1739608;82;21063;-45
2022/06/01 03:59:20;;;;;;;9.55;4.08;;;;;;;17.41;100.00;100850.06;1745512;82;20984;-45
2022/06/01 04:01:47;;;;;;;5.70;3.30;;;;;;;17.38;100.00;100853.64;1744434;82;21026;-45
2022/06/01 04:04:14;;;;;;;6.45;3.65;;;;;;;17.42;100.00;100858.75;1744215;82;20932;-46
2022/06/01 04:06:40;;;;;;;8.80;3.65;;;;;;;17.49;100.00;100859.75;1742724;81;21030;-45
2022/06/01 04:09:08;;;;;;;8.40;3.80;;;;;;;17.57;100.00;100850.27;1746637;81;20908;-46
2022/06/01 04:11:35;;;;;;;9.90;4.00;;;;;;;17.70;100.00;100855.02;1744192;82;20932;-45
2022/06/01 04:14:03;;;;;;;5.87;4.08;;;;;;;17.84;100.00;100853.12;1736394;82;20928;-45
2022/06/01 04:16:29;;;;;;;7.05;3.35;;;;;;;18.04;100.00;100855.73;1707130;82;21439;-45
2022/06/01 04:18:56;;;;;;;9.23;3.35;;;;;;;18.26;100.00;100856.11;1744340;82;20944;-46
2022/06/01 04:21:24;;;;;;;6.20;3.70;;;;;;;18.49;100.00;100851.61;1744388;82;20937;-45
2022/06/01 04:23:51;;;;;;;6.10;3.65;;;;;;;18.67;100.00;100851.22;1734786;82;21102;-46
2022/06/01 04:26:18;;;;;;;5.67;4.10;;;;;;;18.79;99.12;100853.73;1740064;82;21093;-45
2022/06/01 04:28:44;;;;;;;8.30;3.70;;;;;;;18.85;97.98;100858.70;1734781;82;20956;-45
2022/06/01 04:31:11;;;;;;;5.95;3.90;;;;;;;18.95;97.17;100862.59;1734782;81;20905;-46
2022/06/01 04:33:41;;;;;;;6.08;3.80;;;;;;;19.09;96.98;100858.02;1743871;82;20896;-45
2022/06/01 04:36:08;;;;;;;5.80;3.95;;;;;;;19.26;95.84;100865.55;1744365;82;21703;-45
2022/06/01 04:38:35;;;;;;;4.78;4.30;;;;;;;19.38;95.26;100864.11;1735949;82;21140;-45
2022/06/01 04:41:01;;;;;;;12.85;4.33;;;;;;;19.52;94.48;100864.26;1735247;82;21449;-46
2022/06/01 04:43:28;;;;;;;6.60;3.52;;;;;;;19.68;93.85;100865.65;1738700;82;20925;-46
2022/06/01 04:45:55;;;;;;;4.05;3.40;;;;;;;19.88;92.69;100870.36;1737932;82;20947;-46
2022/06/01 04:48:22;;;;;;;6.12;3.70;;;;;;;20.04;92.44;100872.24;1735769;82;20980;-46
2022/06/01 04:50:50;;;;;;;10.53;4.05;;;;;;;20.22;90.93;100868.66;1741030;82;21091;-45
2022/06/01 04:53:17;;;;;;;4.75;4.28;;;;;;;20.38;89.14;100867.83;1744283;82;21530;-45
2022/06/01 04:55:45;;;;;;;7.53;4.22;;;;;;;20.35;88.42;100880.69;1733603;82;20908;-45
2022/06/01 04:58:12;;;;;;;8.53;3.70;;;;;;;20.35;88.81;100879.83;1741032;81;21479;-45
2022/06/01 05:00:40;;;;;;;8.35;4.08;;;;;;;20.31;88.67;100884.39;1744308;82;20903;-46
2022/06/01 05:03:08;;;;;;;7.30;3.62;;;;;;;20.39;89.59;100883.53;1733736;81;21820;-45
2022/06/01 05:05:37;;;;;;;8.98;4.60;;;;;;;20.62;88.79;100885.85;1740504;82;20956;-46
2022/06/01 05:08:06;;;;;;;9.05;4.33;;;;;;;20.80;87.97;100885.34;1745987;81;20940;-46
2022/06/01 05:10:34;;;;;;;10.53;4.40;;;;;;;20.99;86.81;100879.07;1739981;82;21450;-47
2022/06/01 05:13:01;;;;;;;5.58;3.40;;;;;;;21.17;86.65;100885.94;1736142;82;21007;-46
2022/06/01 05:15:27;;;;;;;7.92;3.60;;;;;;;21.50;85.91;100888.89;1744380;82;21250;-48
2022/06/01 05:17:55;;;;;;;5.72;3.77;;;;;;;21.75;84.61;100888.81;1737616;82;20913;-48
2022/06/01 05:20:22;;;;;;;7.95;3.60;;;;;;;21.99;83.55;100888.30;1736068;82;21457;-47
2022/06/01 05:22:49;;;;;;;7.45;3.83;;;;;;;22.21;81.47;100888.32;1730990;82;20956;-46
2022/06/01 05:25:16;;;;;;;6.90;3.90;;;;;;;22.35;81.14;100889.62;1733484;82;20897;-46
2022/06/01 05:27:43;;;;;;;7.15;4.22;;;;;;;22.49;79.56;100886.66;1744246;81;21327;-46
2022/06/01 05:30:11;;;;;;;19.75;4.08;;;;;;;22.54;78.34;100879.30;1734594;82;20915;-45
2022/06/01 05:32:37;;;;;;;9.15;4.12;;;;;;;22.51;77.89;100888.27;1735904;82;20900;-47
2022/06/01 05:35:07;;;;;;;7.75;4.10;;;;;;;22.45;78.29;100886.44;1734792;82;21022;-46
2022/06/01 05:37:34;;;;;;;6.35;3.83;;;;;;;22.42;79.19;100881.36;1734745;81;20857;-45
2022/06/01 05:40:01;;;;;;;13.75;4.28;;;;;;;22.47;79.23;100872.72;1738647;82;21130;-45
2022/06/01 05:42:28;;;;;;;9.15;4.08;;;;;;;22.55;78.71;100870.92;1744215;82;21410;-46
2022/06/01 05:47:34;;;;;;;10.25;4.97;;;;;;;22.75;77.93;100872.30;1798474;79;22678;-44
2022/06/01 05:50:01;;;;;;;5.60;4.00;;;;;;;22.81;77.15;100868.80;1758166;80;20989;-46
2022/06/01 05:52:27;;;;;;;7.33;4.03;;;;;;;22.90;77.69;100875.75;1758254;81;21484;-44
2022/06/01 05:54:54;;;;;;;6.60;3.55;;;;;;;22.93;77.17;100863.22;1758041;81;20928;-46
2022/06/01 05:57:21;;;;;;;9.83;3.80;;;;;;;23.02;76.42;100864.88;1758178;81;20920;-45
2022/06/01 05:59:48;;;;;;;7.35;3.50;;;;;;;23.14;76.54;100868.05;1758170;81;20936;-45
2022/06/01 06:02:15;;;;;;;6.65;4.00;;;;;;;23.23;75.39;100859.98;1758075;80;20905;-45
2022/06/01 06:04:41;;;;;;;5.97;3.92;;;;;;;23.32;75.13;100867.34;1758160;81;21148;-44
2022/06/01 06:07:08;;;;;;;13.30;4.20;;;;;;;23.46;74.19;100870.84;1758142;81;21564;-45
2022/06/01 06:09:36;;;;;;;7.65;3.87;;;;;;;23.51;73.50;100865.64;1758189;81;20932;-48
2022/06/01 06:12:04;;;;;;;10.98;3.98;;;;;;;23.58;73.09;100865.22;1757932;81;21470;-46
2022/06/01 06:14:32;;;;;;;9.33;3.95;;;;;;;23.60;73.10;100867.28;1758410;81;20880;-46
2022/06/01 06:16:59;;;;;;;7.47;4.20;;;;;;;23.61;73.43;100858.41;1757990;81;22172;-46
2022/06/01 06:19:25;;;;;;;8.73;3.62;;;;;;;23.82;73.46;100860.09;1758061;81;21042;-48
2022/06/01 06:21:53;;;;;;;6.30;3.52;;;;;;;23.79;71.77;100855.84;1758127;81;20999;-46
2022/06/01 06:24:21;;;;;;;7.60;3.92;;;;;;;23.57;72.45;100858.25;1758178;81;21015;-46
2022/06/01 06:26:48;;;;;;;6.62;3.72;;;;;;;23.36;73.88;100858.27;1743160;81;20941;-46
2022/06/01 06:29:17;;;;;;;8.48;3.70;;;;;;;23.35;74.28;100857.03;1752700;81;21215;-47
2022/06/01 06:31:44;;;;;;;7.45;3.90;;;;;;;23.64;73.96;100856.91;1749670;82;20979;-46
2022/06/01 06:34:11;;;;;;;8.93;3.85;;;;;;;23.88;72.42;100854.37;1749895;81;21362;-47
2022/06/01 06:36:37;;;;;;;10.75;4.08;;;;;;;24.02;71.84;100849.48;1749743;82;21003;-45
2022/06/01 06:39:04;;;;;;;10.82;4.28;;;;;;;24.00;72.05;100847.41;1749934;81;20865;-46
2022/06/01 06:41:31;;;;;;;7.08;3.40;;;;;;;24.05;71.41;100844.48;1749868;82;21234;-46
2022/06/01 06:43:58;;;;;;;10.10;4.22;;;;;;;24.17;71.23;100846.25;1749723;82;21616;-45
2022/06/01 06:46:25;;;;;;;6.15;3.67;;;;;;;24.28;70.27;100837.56;1750039;81;21002;-46
2022/06/01 06:48:52;;;;;;;6.47;3.70;;;;;;;24.43;69.88;100837.45;1750600;82;20948;-44
2022/06/01 06:51:20;;;;;;;10.58;4.30;;;;;;;24.47;69.27;100830.98;1750674;81;20912;-45
2022/06/01 06:53:47;;;;;;;6.92;3.58;;;;;;;24.36;70.46;100829.09;1750733;81;21243;-47
2022/06/01 06:56:16;;;;;;;6.47;3.95;;;;;;;24.58;69.12;100828.89;1750562;82;20939;-46
2022/06/01 06:58:42;;;;;;;12.63;3.70;;;;;;;24.70;68.46;100834.60;1750291;82;21473;-46
2022/06/01 07:01:09;;;;;;;7.12;3.87;;;;;;;24.65;68.57;100832.30;1722483;82;21509;-47
2022/06/01 07:03:36;;;;;;;7.35;3.90;;;;;;;24.71;68.98;100838.94;1750044;82;20928;-47
2022/06/01 07:06:09;;;;;;;8.75;3.92;;;;;;;24.81;69.44;100836.03;1750224;82;21485;-48
2022/06/01 07:08:37;;;;;;;6.28;3.70;;;;;;;25.07;68.62;100833.73;1750061;82;20913;-45
2022/06/01 07:11:05;;;;;;;11.15;4.20;;;;;;;25.32;67.84;100838.06;1750112;82;20932;-46
2022/06/01 07:13:34;;;;;;;9.08;3.72;;;;;;;25.58;67.20;100835.74;1750012;81;20932;-46
2022/06/01 07:16:12;;;;;;;13.20;3.58;;;;;;;25.79;64.93;100836.75;1749889;81;20916;-46
2022/06/01 07:18:43;;;;;;;6.08;3.72;;;;;;;25.93;64.83;100834.85;1749906;82;21124;-45
2022/06/01 07:21:09;;;;;;;9.20;3.17;;;;;;;26.10;63.39;100844.96;1749988;81;20932;-46
2022/06/01 07:23:37;;;;;;;10.48;4.00;;;;;;;25.97;61.83;100835.80;1749920;82;20959;-45
2022/06/01 07:26:07;;;;;;;15.43;4.00;;;;;;;25.69;63.39;100842.41;1749848;82;20948;-46
2022/06/01 07:28:33;;;;;;;8.98;3.80;;;;;;;25.39;64.20;100835.80;1749976;82;20928;-47
2022/06/01 07:31:00;;;;;;;13.53;3.90;;;;;;;25.39;65.26;100831.83;1750132;82;21110;-47
2022/06/01 07:33:28;;;;;;;7.78;3.33;;;;;;;25.58;64.95;100841.04;1749870;82;20912;-45
2022/06/01 07:35:58;;;;;;;12.43;3.77;;;;;;;25.79;64.41;100835.42;1750002;82;21024;-46
2022/06/01 07:43:05;;;;;;;4.10;2.92;;;;;;;25.96;65.41;100838.58;1750057;81;20959;-46
2022/06/01 07:44:23;;;;;;;8.73;2.90;;;;;;;26.24;62.31;100828.48;1745851;82;21824;-46
2022/06/01 07:46:50;;;;;;;16.95;3.80;;;;;;;26.40;61.06;100830.76;1743471;81;20948;-46
2022/06/01 07:49:17;;;;;;;11.45;3.20;;;;;;;26.29;61.33;100831.61;1735907;82;21408;-47
2022/06/01 07:51:44;;;;;;;14.30;4.00;;;;;;;26.35;61.85;100826.31;1735940;82;20936;-47
2022/06/01 07:54:10;;;;;;;10.68;3.37;;;;;;;26.50;61.94;100831.70;1736157;82;20937;-45
2022/06/01 07:56:37;;;;;;;18.87;3.52;;;;;;;26.64;61.51;100831.08;1736078;82;21193;-46
2022/06/01 07:59:05;;;;;;;9.73;3.20;;;;;;;26.75;59.40;100820.92;1735904;82;20858;-46
2022/06/01 08:01:33;;;;;;;8.13;3.40;;;;;;;26.70;60.23;100823.11;1735961;82;21000;-45
2022/06/01 08:04:02;;;;;;;9.48;3.00;;;;;;;26.83;59.71;100826.44;1735981;82;20902;-46
2022/06/01 08:06:29;;;;;;;8.58;3.65;;;;;;;26.73;60.01;100825.52;1735984;82;20949;-46
2022/06/01 08:08:56;;;;;;;8.48;3.12;;;;;;;26.88;58.64;100824.27;1735920;82;22036;-46
2022/06/01 08:13:06;;;;;;;7.80;3.30;;;;;;;27.04;57.91;100818.56;1735896;82;20864;-46
2022/06/01 08:13:53;;;;;;;4.92;3.47;;;;;;;27.11;59.08;100818.88;1733001;82;20957;-46
2022/06/01 08:16:20;;;;;;;6.67;3.00;;;;;;;27.41;59.37;100822.61;1736043;81;21542;-46
2022/06/01 08:18:48;;;;;;;7.00;3.27;;;;;;;27.65;56.21;100822.36;1735886;82;20965;-45
2022/06/01 08:21:14;;;;;;;9.80;3.95;;;;;;;27.69;56.14;100820.29;1736078;82;21245;-47
2022/06/01 08:23:41;;;;;;;4.42;2.90;;;;;;;27.80;55.24;100826.02;1735915;82;22168;-46
2022/06/01 08:26:08;;;;;;;9.35;3.83;;;;;;;27.93;54.99;100825.80;1735954;82;20988;-46
2022/06/01 08:28:35;;;;;;;8.73;3.08;;;;;;;27.87;55.29;100822.31;1735905;81;20968;-46
2022/06/01 08:31:02;;;;;;;6.75;3.30;;;;;;;27.96;57.63;100821.53;1735894;82;20858;-45
2022/06/01 08:33:28;;;;;;;9.20;3.35;;;;;;;28.35;56.46;100816.36;1736029;81;21109;-45
2022/06/01 08:35:55;;;;;;;7.20;3.40;;;;;;;28.72;56.43;100815.39;1735820;81;21605;-46
2022/06/01 08:38:22;;;;;;;11.60;3.20;;;;;;;28.90;54.19;100815.06;1736085;82;20925;-46
2022/06/01 08:41:04;;;;;;;8.43;3.35;;;;;;;28.95;54.34;100805.33;1735897;82;21585;-45
2022/06/01 08:43:36;;;;;;;9.38;3.42;;;;;;;29.03;53.68;100807.30;1735972;81;21604;-47
2022/06/01 08:46:03;;;;;;;6.20;2.92;;;;;;;28.95;53.49;100810.19;1735991;82;21363;-45
2022/06/01 08:48:34;;;;;;;5.83;2.92;;;;;;;28.79;53.79;100803.23;1735981;82;20874;-46
2022/06/01 08:51:03;;;;;;;8.03;3.45;;;;;;;28.84;54.16;100808.97;1735977;82;20878;-45
2022/06/01 08:53:30;;;;;;;9.23;3.40;;;;;;;28.75;54.64;100806.62;1735715;82;21470;-46
2022/06/01 08:56:09;;;;;;;7.95;3.47;;;;;;;28.92;54.89;100802.45;1736045;82;20890;-45
2022/06/01 08:58:53;;;;;;;8.38;3.20;;;;;;;29.05;53.40;100808.00;1735723;82;21407;-45
2022/06/01 09:01:40;;;;;;;6.72;3.45;;;;;;;28.94;54.26;100799.66;1736055;82;20874;-45
2022/06/01 09:04:39;;;;;;;11.97;3.12;;;;;;;28.99;53.73;100798.73;1735955;81;20977;-46
2022/06/01 09:07:28;;;;;;;9.35;2.98;;;;;;;29.27;52.40;100800.69;1735606;82;20976;-45
2022/06/01 09:10:31;;;;;;;11.73;3.27;;;;;;;29.40;51.48;100797.20;1735923;82;21694;-47
2022/06/01 09:13:09;;;;;;;9.58;3.00;;;;;;;29.31;50.66;100798.08;1736008;82;21264;-46
2022/06/01 09:15:59;;;;;;;7.12;2.95;;;;;;;29.13;50.73;100802.80;1735817;82;20993;-46
2022/06/01 09:18:30;;;;;;;8.53;3.30;;;;;;;29.01;51.43;100797.28;1735905;82;20933;-47
2022/06/01 09:23:42;;;;;;;11.17;2.60;;;;;;;28.99;51.69;100792.58;1736568;81;21041;-47
2022/06/01 09:26:09;;;;;;;6.47;3.00;;;;;;;29.14;50.52;100787.16;1735966;82;21133;-45
2022/06/01 09:28:43;;;;;;;3.20;2.87;;;;;;;29.22;49.83;100779.31;1715018;82;21514;-46
2022/06/01 09:31:21;;;;;;;13.90;5.40;;;;;;;29.31;50.44;100782.09;1734806;82;20933;-46
2022/06/01 09:33:49;;;;;;;9.88;3.42;;;;;;;29.36;50.88;100778.50;1735998;82;21031;-45
2022/06/01 09:36:27;;;;;;;9.80;3.37;;;;;;;29.52;50.76;100773.44;1735973;82;21502;-46
2022/06/01 09:38:58;;;;;;;4.50;2.90;;;;;;;29.72;50.18;100768.53;1735850;82;21134;-46
2022/06/01 09:41:31;;;;;;;7.10;2.90;;;;;;;29.99;50.19;100771.72;1735878;82;20933;-46
2022/06/01 09:44:02;;;;;;;7.10;2.47;;;;;;;30.15;49.05;100776.91;1735820;82;20961;-46
2022/06/01 09:46:42;;;;;;;5.60;2.30;;;;;;;30.30;49.48;100762.08;1736033;81;20881;-47
2022/06/01 09:49:33;;;;;;;5.12;2.58;;;;;;;30.54;47.44;100764.66;1719347;82;20948;-47
2022/06/01 09:52:11;;;;;;;6.35;3.05;;;;;;;30.68;47.46;100769.48;1749835;82;21189;-47
2022/06/01 09:54:44;;;;;;;8.50;2.90;;;;;;;30.67;45.92;100769.14;1721613;82;20932;-47
2022/06/01 09:57:28;;;;;;;8.73;2.70;;;;;;;30.72;46.90;100771.36;1750007;82;20992;-46
2022/06/01 10:08:23;;;;;;;10.38;2.85;;;;;;;30.96;44.90;100757.38;1750025;82;21057;-48
2022/06/01 10:11:04;;;;;;;23.45;3.35;;;;;;;30.95;46.24;100759.72;1749922;81;20940;-46
2022/06/01 10:13:40;;;;;;;12.25;3.22;;;;;;;31.00;45.35;100763.23;1749916;81;20968;-45
2022/06/01 10:16:12;;;;;;;5.53;2.50;;;;;;;30.89;45.92;100756.30;1748754;82;20944;-46
2022/06/01 10:18:40;;;;;;;6.70;2.85;;;;;;;31.09;45.25;100757.46;1749256;82;21127;-48
2022/06/01 10:21:10;;;;;;;7.58;2.50;;;;;;;31.09;43.08;100760.13;1749844;82;21023;-45
2022/06/01 10:23:48;;;;;;;7.45;2.50;;;;;;;30.74;44.08;100762.70;1749851;81;20877;-46
2022/06/01 10:26:31;;;;;;;4.97;2.80;;;;;;;30.48;42.89;100770.10;1749757;81;20925;-45
2022/06/01 10:29:11;;;;;;;6.40;2.30;;;;;;;30.47;44.52;100767.60;1745381;82;20877;-45
2022/06/01 10:31:43;;;;;;;3.55;2.52;;;;;;;30.77;45.90;100762.89;1749947;80;21871;-47
2022/06/01 10:34:17;;;;;;;7.22;2.47;;;;;;;31.13;44.44;100766.84;1750060;82;20960;-46
2022/06/01 10:37:01;;;;;;;6.15;2.55;;;;;;;31.32;44.89;100769.83;1750314;82;21426;-46
2022/06/01 10:39:47;;;;;;;4.60;2.90;;;;;;;31.56;45.06;100770.16;1749953;80;20940;-46
2022/06/01 10:45:17;;;;;;;7.65;2.50;;;;;;;32.23;42.50;100766.77;1750051;82;21169;-47
2022/06/01 10:47:58;;;;;;;5.33;2.37;;;;;;;32.10;40.50;100771.26;1749821;81;21412;-47
2022/06/01 10:50:29;;;;;;;6.37;2.30;;;;;;;31.95;40.93;100769.67;1737690;82;20949;-46
2022/06/01 10:53:19;;;;;;;5.22;2.27;;;;;;;31.88;41.46;100771.33;1749821;80;21011;-46
2022/06/01 10:55:48;;;;;;;3.60;2.12;;;;;;;31.99;40.77;100763.02;1749851;82;22108;-47
2022/06/01 10:58:22;;;;;;;8.73;2.40;;;;;;;32.09;41.10;100766.91;1749970;81;21036;-46
2022/06/01 11:01:00;;;;;;;7.27;2.50;;;;;;;32.16;41.17;100757.70;1750042;82;20916;-47
2022/06/01 11:03:58;;;;;;;8.75;2.40;;;;;;;32.08;40.18;100763.38;1749862;81;21012;-45
2022/06/01 11:07:13;;;;;;;4.75;2.72;;;;;;;32.07;40.72;100759.51;1749945;82;21019;-45
2022/06/01 11:10:00;;;;;;;8.65;2.72;;;;;;;32.23;41.21;100761.42;1750089;81;20976;-47
2022/06/01 11:12:55;;;;;;;5.35;2.22;;;;;;;32.31;40.00;100767.27;1750080;80;21247;-46
2022/06/01 11:15:58;;;;;;;6.30;2.60;;;;;;;32.26;40.31;100763.77;1749968;82;21003;-47
2022/06/01 11:18:36;;;;;;;9.58;2.58;;;;;;;32.39;40.54;100764.14;1750135;82;21419;-47
2022/06/01 11:21:17;;;;;;;10.78;2.40;;;;;;;32.34;39.38;100754.95;1749992;82;20940;-46
2022/06/01 11:24:24;;;;;;;9.78;2.75;;;;;;;32.23;39.74;100754.73;1748869;82;21526;-45
2022/06/01 11:27:13;;;;;;;9.88;2.90;;;;;;;32.21;39.45;100760.72;1741529;82;21288;-47
2022/06/01 11:29:45;;;;;;;6.12;2.20;;;;;;;32.22;39.78;100760.56;1749858;81;20925;-47
2022/06/01 11:32:17;;;;;;;7.92;2.70;;;;;;;32.40;39.89;100752.95;1750102;82;20920;-46
2022/06/01 11:35:02;;;;;;;11.73;2.62;;;;;;;32.43;40.86;100751.27;1749113;82;20983;-46
2022/06/01 11:37:39;;;;;;;6.10;2.33;;;;;;;32.51;39.23;100750.45;1745489;82;21414;-45
2022/06/01 11:40:13;;;;;;;5.17;2.85;;;;;;;32.61;39.21;100752.97;1722671;82;21002;-47
2022/06/01 11:43:05;;;;;;;5.53;2.22;;;;;;;32.72;39.19;100753.15;1750024;82;21458;-45
2022/06/01 11:45:42;;;;;;;6.12;2.87;;;;;;;32.59;38.82;100756.30;1749908;81;21414;-46
2022/06/01 11:48:13;;;;;;;8.43;2.52;;;;;;;32.14;39.34;100758.36;1749732;80;20944;-45
2022/06/01 11:51:06;;;;;;;4.35;2.12;;;;;;;32.02;39.77;100761.84;1750163;82;20968;-46
2022/06/01 11:53:47;;;;;;;7.30;2.83;;;;;;;31.98;40.14;100757.34;1750022;82;21275;-47
2022/06/01 11:56:34;;;;;;;7.17;2.80;;;;;;;32.14;40.65;100757.03;1748456;82;20983;-45
2022/06/01 11:59:29;;;;;;;5.37;2.52;;;;;;;32.33;40.70;100754.09;1749979;82;21000;-45
2022/06/01 12:02:40;;;;;;;10.17;2.80;;;;;;;32.50;39.17;100750.12;1750255;82;20999;-46
2022/06/01 12:05:12;;;;;;;6.22;2.80;;;;;;;32.68;38.83;100751.30;1748818;82;21433;-47
2022/06/01 12:07:57;;;;;;;9.38;2.72;;;;;;;32.94;38.70;100754.33;1749889;81;21516;-47
2022/06/01 12:10:28;;;;;;;6.58;2.25;;;;;;;33.00;38.10;100740.77;1747838;82;20877;-46